sensor_id;sensor_type;location;lat;lon;timestamp;temperature;humidity
18593;DHT22;9426;54.118;17.948;2024-03-08T00:04:47;-3.40;99.90
18593;DHT22;9426;54.118;17.948;2024-03-08T00:10:12;-3.40;99.90
18593;DHT22;9426;54.118;17.948;2024-03-08T00:15:35;-3.40;99.90
18593;DHT22;9426;54.118;17.948;2024-03-08T00:21:00;-3.30;99.90
18593;DHT22;9426;54.118;17.948;2024-03-08T00:26:23;-3.40;99.90
18593;DHT22;9426;54.118;17.948;2024-03-08T00:31:46;-3.40;99.90
18593;DHT22;9426;54.118;17.948;2024-03-08T00:37:11;-3.50;99.90
18593;DHT22;9426;54.118;17.948;2024-03-08T00:42:35;-3.60;99.90
18593;DHT22;9426;54.118;17.948;2024-03-08T00:48:00;-3.60;99.90
18593;DHT22;9426;54.118;17.948;2024-03-08T00:53:24;-3.70;99.90
18593;DHT22;9426;54.118;17.948;2024-03-08T00:58:48;-3.60;99.90
18593;DHT22;9426;54.118;17.948;2024-03-08T01:04:11;-3.70;99.90
18593;DHT22;9426;54.118;17.948;2024-03-08T01:09:35;-3.70;99.90
18593;DHT22;9426;54.118;17.948;2024-03-08T01:14:59;-3.70;99.90
18593;DHT22;9426;54.118;17.948;2024-03-08T01:20:22;-3.80;99.90
18593;DHT22;9426;54.118;17.948;2024-03-08T01:25:47;-3.90;99.90
18593;DHT22;9426;54.118;17.948;2024-03-08T01:31:10;-3.90;99.90
18593;DHT22;9426;54.118;17.948;2024-03-08T01:36:34;-4.10;99.90
18593;DHT22;9426;54.118;17.948;2024-03-08T01:42:00;-4.00;99.90
18593;DHT22;9426;54.118;17.948;2024-03-08T01:47:24;-4.10;99.90
18593;DHT22;9426;54.118;17.948;2024-03-08T01:52:47;-4.20;99.90
18593;DHT22;9426;54.118;17.948;2024-03-08T01:58:12;-4.20;99.90
18593;DHT22;9426;54.118;17.948;2024-03-08T02:03:37;-4.20;99.90
18593;DHT22;9426;54.118;17.948;2024-03-08T02:09:00;-4.30;99.90
18593;DHT22;9426;54.118;17.948;2024-03-08T02:14:28;-4.20;99.90
18593;DHT22;9426;54.118;17.948;2024-03-08T02:19:53;-4.30;99.90
18593;DHT22;9426;54.118;17.948;2024-03-08T02:25:19;-4.30;99.90
18593;DHT22;9426;54.118;17.948;2024-03-08T02:30:42;-4.30;99.90
18593;DHT22;9426;54.118;17.948;2024-03-08T02:36:06;-4.40;99.90
18593;DHT22;9426;54.118;17.948;2024-03-08T02:41:31;-4.40;99.90
18593;DHT22;9426;54.118;17.948;2024-03-08T02:46:54;-4.40;99.90
18593;DHT22;9426;54.118;17.948;2024-03-08T02:52:18;-4.50;99.90
18593;DHT22;9426;54.118;17.948;2024-03-08T02:57:44;-4.50;99.90
18593;DHT22;9426;54.118;17.948;2024-03-08T03:03:09;-4.50;99.90
18593;DHT22;9426;54.118;17.948;2024-03-08T03:08:32;-4.50;99.90
18593;DHT22;9426;54.118;17.948;2024-03-08T03:13:57;-4.00;99.90
18593;DHT22;9426;54.118;17.948;2024-03-08T03:19:20;-4.60;99.90
18593;DHT22;9426;54.118;17.948;2024-03-08T03:24:44;-4.60;99.90
18593;DHT22;9426;54.118;17.948;2024-03-08T03:30:10;-4.70;99.90
18593;DHT22;9426;54.118;17.948;2024-03-08T03:35:43;-4.70;99.90
18593;DHT22;9426;54.118;17.948;2024-03-08T03:41:07;-4.90;99.90
18593;DHT22;9426;54.118;17.948;2024-03-08T03:46:34;-4.90;99.90
18593;DHT22;9426;54.118;17.948;2024-03-08T03:51:57;-5.00;99.90
18593;DHT22;9426;54.118;17.948;2024-03-08T03:57:20;-5.00;99.90
18593;DHT22;9426;54.118;17.948;2024-03-08T04:02:46;-5.10;99.90
18593;DHT22;9426;54.118;17.948;2024-03-08T04:08:09;-5.30;99.90
18593;DHT22;9426;54.118;17.948;2024-03-08T04:13:33;-5.40;99.90
18593;DHT22;9426;54.118;17.948;2024-03-08T04:19:00;-5.40;99.90
18593;DHT22;9426;54.118;17.948;2024-03-08T04:24:26;-5.40;99.90
18593;DHT22;9426;54.118;17.948;2024-03-08T04:29:49;-5.30;99.90
18593;DHT22;9426;54.118;17.948;2024-03-08T04:35:13;-5.30;99.90
18593;DHT22;9426;54.118;17.948;2024-03-08T04:40:37;-5.30;99.90
18593;DHT22;9426;54.118;17.948;2024-03-08T04:46:01;-5.30;99.90
18593;DHT22;9426;54.118;17.948;2024-03-08T04:51:26;-5.30;99.90
18593;DHT22;9426;54.118;17.948;2024-03-08T04:56:50;-5.30;99.90
18593;DHT22;9426;54.118;17.948;2024-03-08T05:02:13;-5.40;99.90
18593;DHT22;9426;54.118;17.948;2024-03-08T05:07:38;-5.40;99.90
18593;DHT22;9426;54.118;17.948;2024-03-08T05:13:01;-5.50;99.90
18593;DHT22;9426;54.118;17.948;2024-03-08T05:18:25;-5.50;99.90
18593;DHT22;9426;54.118;17.948;2024-03-08T05:23:52;-5.50;99.90
18593;DHT22;9426;54.118;17.948;2024-03-08T05:29:15;-5.50;99.90
18593;DHT22;9426;54.118;17.948;2024-03-08T05:34:38;-5.50;99.90
18593;DHT22;9426;54.118;17.948;2024-03-08T05:40:04;-5.60;99.90
18593;DHT22;9426;54.118;17.948;2024-03-08T05:45:32;-5.50;99.90
18593;DHT22;9426;54.118;17.948;2024-03-08T05:50:56;-5.50;99.90
18593;DHT22;9426;54.118;17.948;2024-03-08T05:56:20;-5.40;99.90
18593;DHT22;9426;54.118;17.948;2024-03-08T06:01:44;-5.30;99.90
18593;DHT22;9426;54.118;17.948;2024-03-08T06:07:09;-5.20;99.90
18593;DHT22;9426;54.118;17.948;2024-03-08T06:12:35;-5.00;99.90
18593;DHT22;9426;54.118;17.948;2024-03-08T06:18:02;-4.80;99.90
18593;DHT22;9426;54.118;17.948;2024-03-08T06:23:28;-4.60;99.90
18593;DHT22;9426;54.118;17.948;2024-03-08T06:28:52;-4.20;99.90
18593;DHT22;9426;54.118;17.948;2024-03-08T06:34:18;-3.80;99.90
18593;DHT22;9426;54.118;17.948;2024-03-08T06:39:41;-3.40;99.90
18593;DHT22;9426;54.118;17.948;2024-03-08T06:45:07;-3.00;99.90
18593;DHT22;9426;54.118;17.948;2024-03-08T06:50:32;-2.60;99.90
18593;DHT22;9426;54.118;17.948;2024-03-08T06:55:56;-2.30;99.90
18593;DHT22;9426;54.118;17.948;2024-03-08T07:01:21;-2.10;99.90
18593;DHT22;9426;54.118;17.948;2024-03-08T07:06:45;-1.90;99.90
18593;DHT22;9426;54.118;17.948;2024-03-08T07:12:08;-1.70;99.90
18593;DHT22;9426;54.118;17.948;2024-03-08T07:17:34;-1.70;99.90
18593;DHT22;9426;54.118;17.948;2024-03-08T07:23:00;-1.40;99.90
18593;DHT22;9426;54.118;17.948;2024-03-08T07:28:24;-1.10;99.90
18593;DHT22;9426;54.118;17.948;2024-03-08T07:33:49;-0.80;99.90
18593;DHT22;9426;54.118;17.948;2024-03-08T07:39:13;-0.60;99.90
18593;DHT22;9426;54.118;17.948;2024-03-08T07:44:37;-0.40;99.90
18593;DHT22;9426;54.118;17.948;2024-03-08T07:50:06;-0.30;99.90
18593;DHT22;9426;54.118;17.948;2024-03-08T07:55:30;-0.10;99.90
18593;DHT22;9426;54.118;17.948;2024-03-08T08:00:55;0.10;99.90
18593;DHT22;9426;54.118;17.948;2024-03-08T08:06:19;0.20;99.90
18593;DHT22;9426;54.118;17.948;2024-03-08T08:11:43;0.30;99.90
18593;DHT22;9426;54.118;17.948;2024-03-08T08:17:06;0.40;99.90
18593;DHT22;9426;54.118;17.948;2024-03-08T08:22:32;0.50;99.90
18593;DHT22;9426;54.118;17.948;2024-03-08T08:27:57;0.60;99.90
18593;DHT22;9426;54.118;17.948;2024-03-08T08:33:20;0.70;99.90
18593;DHT22;9426;54.118;17.948;2024-03-08T08:38:45;0.90;99.90
18593;DHT22;9426;54.118;17.948;2024-03-08T08:44:11;0.80;99.90
18593;DHT22;9426;54.118;17.948;2024-03-08T08:49:35;1.10;99.90
18593;DHT22;9426;54.118;17.948;2024-03-08T08:55:00;1.40;99.90
18593;DHT22;9426;54.118;17.948;2024-03-08T09:00:25;1.80;99.90
18593;DHT22;9426;54.118;17.948;2024-03-08T09:05:49;2.20;99.90
18593;DHT22;9426;54.118;17.948;2024-03-08T09:11:15;2.70;99.90
18593;DHT22;9426;54.118;17.948;2024-03-08T09:16:39;2.50;99.90
18593;DHT22;9426;54.118;17.948;2024-03-08T09:22:03;2.40;99.90
18593;DHT22;9426;54.118;17.948;2024-03-08T09:27:30;1.80;99.90
18593;DHT22;9426;54.118;17.948;2024-03-08T09:32:54;1.60;99.90
18593;DHT22;9426;54.118;17.948;2024-03-08T09:38:18;1.50;99.90
18593;DHT22;9426;54.118;17.948;2024-03-08T09:43:44;1.40;99.90
18593;DHT22;9426;54.118;17.948;2024-03-08T09:49:09;1.50;99.90
18593;DHT22;9426;54.118;17.948;2024-03-08T09:54:34;1.60;99.90
18593;DHT22;9426;54.118;17.948;2024-03-08T09:59:59;1.80;99.90
18593;DHT22;9426;54.118;17.948;2024-03-08T10:05:25;2.10;99.90
18593;DHT22;9426;54.118;17.948;2024-03-08T10:10:48;2.50;99.90
18593;DHT22;9426;54.118;17.948;2024-03-08T10:16:15;2.90;99.90
18593;DHT22;9426;54.118;17.948;2024-03-08T10:21:47;3.20;99.90
18593;DHT22;9426;54.118;17.948;2024-03-08T10:27:12;3.50;99.90
18593;DHT22;9426;54.118;17.948;2024-03-08T10:32:38;3.90;99.90
18593;DHT22;9426;54.118;17.948;2024-03-08T10:38:05;4.20;99.90
18593;DHT22;9426;54.118;17.948;2024-03-08T10:43:38;4.40;99.90
18593;DHT22;9426;54.118;17.948;2024-03-08T10:49:07;4.60;99.90
18593;DHT22;9426;54.118;17.948;2024-03-08T10:54:33;4.70;99.90
18593;DHT22;9426;54.118;17.948;2024-03-08T10:59:58;5.10;99.90
18593;DHT22;9426;54.118;17.948;2024-03-08T11:05:36;5.40;99.90
18593;DHT22;9426;54.118;17.948;2024-03-08T11:11:01;7.30;99.90
18593;DHT22;9426;54.118;17.948;2024-03-08T11:16:39;10.20;99.90
18593;DHT22;9426;54.118;17.948;2024-03-08T11:22:21;12.60;99.90
18593;DHT22;9426;54.118;17.948;2024-03-08T11:27:53;14.30;99.90
18593;DHT22;9426;54.118;17.948;2024-03-08T11:33:29;14.10;99.90
18593;DHT22;9426;54.118;17.948;2024-03-08T11:38:57;14.90;99.90
18593;DHT22;9426;54.118;17.948;2024-03-08T11:44:21;15.60;99.90
18593;DHT22;9426;54.118;17.948;2024-03-08T11:49:44;15.90;99.90
18593;DHT22;9426;54.118;17.948;2024-03-08T11:55:11;15.10;97.20
18593;DHT22;9426;54.118;17.948;2024-03-08T12:00:35;16.00;98.00
18593;DHT22;9426;54.118;17.948;2024-03-08T12:06:00;17.00;96.50
18593;DHT22;9426;54.118;17.948;2024-03-08T12:11:24;17.80;94.30
18593;DHT22;9426;54.118;17.948;2024-03-08T12:16:50;18.00;92.60
18593;DHT22;9426;54.118;17.948;2024-03-08T12:22:15;17.90;90.80
18593;DHT22;9426;54.118;17.948;2024-03-08T12:27:41;17.80;90.20
18593;DHT22;9426;54.118;17.948;2024-03-08T12:33:04;18.00;87.40
18593;DHT22;9426;54.118;17.948;2024-03-08T12:38:32;18.60;82.40
18593;DHT22;9426;54.118;17.948;2024-03-08T12:43:58;19.00;79.70
18593;DHT22;9426;54.118;17.948;2024-03-08T12:49:23;17.50;82.10
18593;DHT22;9426;54.118;17.948;2024-03-08T12:54:46;17.40;80.70
18593;DHT22;9426;54.118;17.948;2024-03-08T13:00:14;17.20;80.10
18593;DHT22;9426;54.118;17.948;2024-03-08T13:05:40;17.50;80.20
18593;DHT22;9426;54.118;17.948;2024-03-08T13:11:04;18.30;77.80
18593;DHT22;9426;54.118;17.948;2024-03-08T13:16:30;18.20;75.00
18593;DHT22;9426;54.118;17.948;2024-03-08T13:21:54;17.90;75.50
18593;DHT22;9426;54.118;17.948;2024-03-08T13:27:18;18.50;74.80
18593;DHT22;9426;54.118;17.948;2024-03-08T13:32:44;19.20;72.10
18593;DHT22;9426;54.118;17.948;2024-03-08T13:38:08;18.90;72.00
18593;DHT22;9426;54.118;17.948;2024-03-08T13:43:35;18.70;72.60
18593;DHT22;9426;54.118;17.948;2024-03-08T13:49:04;18.20;71.70
18593;DHT22;9426;54.118;17.948;2024-03-08T13:54:30;18.60;70.20
18593;DHT22;9426;54.118;17.948;2024-03-08T13:59:53;19.40;69.00
18593;DHT22;9426;54.118;17.948;2024-03-08T14:05:18;18.70;69.10
18593;DHT22;9426;54.118;17.948;2024-03-08T14:10:43;18.60;71.50
18593;DHT22;9426;54.118;17.948;2024-03-08T14:16:08;18.10;69.50
18593;DHT22;9426;54.118;17.948;2024-03-08T14:21:34;18.00;71.20
18593;DHT22;9426;54.118;17.948;2024-03-08T14:26:59;17.70;70.20
18593;DHT22;9426;54.118;17.948;2024-03-08T14:32:22;18.00;70.90
18593;DHT22;9426;54.118;17.948;2024-03-08T14:37:47;16.80;70.30
18593;DHT22;9426;54.118;17.948;2024-03-08T14:43:12;14.20;73.90
18593;DHT22;9426;54.118;17.948;2024-03-08T14:48:37;11.30;82.40
18593;DHT22;9426;54.118;17.948;2024-03-08T14:54:02;9.70;87.10
18593;DHT22;9426;54.118;17.948;2024-03-08T14:59:28;8.70;89.10
18593;DHT22;9426;54.118;17.948;2024-03-08T15:04:52;8.10;93.10
18593;DHT22;9426;54.118;17.948;2024-03-08T15:10:22;7.70;95.20
18593;DHT22;9426;54.118;17.948;2024-03-08T15:15:48;7.40;98.00
18593;DHT22;9426;54.118;17.948;2024-03-08T15:21:16;7.10;99.90
18593;DHT22;9426;54.118;17.948;2024-03-08T15:26:44;6.80;99.90
18593;DHT22;9426;54.118;17.948;2024-03-08T15:32:08;6.50;99.90
18593;DHT22;9426;54.118;17.948;2024-03-08T15:37:36;6.50;99.90
18593;DHT22;9426;54.118;17.948;2024-03-08T15:43:01;6.40;99.90
18593;DHT22;9426;54.118;17.948;2024-03-08T15:48:25;6.30;99.90
18593;DHT22;9426;54.118;17.948;2024-03-08T15:53:49;6.10;99.90
18593;DHT22;9426;54.118;17.948;2024-03-08T15:59:19;5.70;99.90
18593;DHT22;9426;54.118;17.948;2024-03-08T16:04:43;5.40;99.90
18593;DHT22;9426;54.118;17.948;2024-03-08T16:10:08;5.00;99.90
18593;DHT22;9426;54.118;17.948;2024-03-08T16:15:34;4.70;99.90
18593;DHT22;9426;54.118;17.948;2024-03-08T16:21:01;4.40;99.90
18593;DHT22;9426;54.118;17.948;2024-03-08T16:26:26;4.20;99.90
18593;DHT22;9426;54.118;17.948;2024-03-08T16:31:53;3.90;99.90
18593;DHT22;9426;54.118;17.948;2024-03-08T16:37:17;3.60;99.90
18593;DHT22;9426;54.118;17.948;2024-03-08T16:42:43;3.20;99.90
18593;DHT22;9426;54.118;17.948;2024-03-08T16:48:09;2.90;99.90
18593;DHT22;9426;54.118;17.948;2024-03-08T16:53:33;2.60;99.90
18593;DHT22;9426;54.118;17.948;2024-03-08T16:58:57;2.40;99.90
18593;DHT22;9426;54.118;17.948;2024-03-08T17:04:22;2.20;99.90
18593;DHT22;9426;54.118;17.948;2024-03-08T17:09:48;2.10;99.90
18593;DHT22;9426;54.118;17.948;2024-03-08T17:15:13;2.00;99.90
18593;DHT22;9426;54.118;17.948;2024-03-08T17:20:39;1.90;99.90
18593;DHT22;9426;54.118;17.948;2024-03-08T17:26:04;1.80;99.90
18593;DHT22;9426;54.118;17.948;2024-03-08T17:31:30;1.80;99.90
18593;DHT22;9426;54.118;17.948;2024-03-08T17:36:55;1.60;99.90
18593;DHT22;9426;54.118;17.948;2024-03-08T17:42:20;1.40;99.90
18593;DHT22;9426;54.118;17.948;2024-03-08T17:47:45;1.30;99.90
18593;DHT22;9426;54.118;17.948;2024-03-08T17:53:11;1.30;99.90
18593;DHT22;9426;54.118;17.948;2024-03-08T17:58:35;1.20;99.90
18593;DHT22;9426;54.118;17.948;2024-03-08T18:03:59;1.00;99.90
18593;DHT22;9426;54.118;17.948;2024-03-08T18:09:24;0.90;99.90
18593;DHT22;9426;54.118;17.948;2024-03-08T18:14:48;0.70;99.90
18593;DHT22;9426;54.118;17.948;2024-03-08T18:20:12;0.60;99.90
18593;DHT22;9426;54.118;17.948;2024-03-08T18:25:38;0.40;99.90
18593;DHT22;9426;54.118;17.948;2024-03-08T18:31:02;0.30;99.90
18593;DHT22;9426;54.118;17.948;2024-03-08T18:36:27;0.20;99.90
18593;DHT22;9426;54.118;17.948;2024-03-08T18:41:54;0.00;99.90
18593;DHT22;9426;54.118;17.948;2024-03-08T18:47:18;-0.20;99.90
18593;DHT22;9426;54.118;17.948;2024-03-08T18:59:23;-0.50;99.90
18593;DHT22;9426;54.118;17.948;2024-03-08T19:04:49;-0.50;99.90
18593;DHT22;9426;54.118;17.948;2024-03-08T19:57:28;-1.40;99.90
18593;DHT22;9426;54.118;17.948;2024-03-08T20:37:26;-0.80;99.90
18593;DHT22;9426;54.118;17.948;2024-03-08T21:02:59;-0.60;99.90
18593;DHT22;9426;54.118;17.948;2024-03-08T21:08:34;-0.70;99.90
18593;DHT22;9426;54.118;17.948;2024-03-08T21:14:00;-0.70;99.90
18593;DHT22;9426;54.118;17.948;2024-03-08T21:19:26;-0.70;99.90
18593;DHT22;9426;54.118;17.948;2024-03-08T21:32:26;-0.60;99.90
18593;DHT22;9426;54.118;17.948;2024-03-08T21:37:53;-0.60;99.90
18593;DHT22;9426;54.118;17.948;2024-03-08T21:43:17;-0.60;99.90
18593;DHT22;9426;54.118;17.948;2024-03-08T21:48:42;-0.70;99.90
18593;DHT22;9426;54.118;17.948;2024-03-08T21:54:11;-0.60;99.90
18593;DHT22;9426;54.118;17.948;2024-03-08T21:59:36;-0.60;99.90
18593;DHT22;9426;54.118;17.948;2024-03-08T22:05:03;-0.60;99.90
18593;DHT22;9426;54.118;17.948;2024-03-08T22:10:33;-0.60;99.90
18593;DHT22;9426;54.118;17.948;2024-03-08T22:16:00;-0.80;99.90
18593;DHT22;9426;54.118;17.948;2024-03-08T22:21:28;-0.80;99.90
18593;DHT22;9426;54.118;17.948;2024-03-08T22:26:57;-0.70;99.90
18593;DHT22;9426;54.118;17.948;2024-03-08T22:32:25;-0.70;99.90
18593;DHT22;9426;54.118;17.948;2024-03-08T22:37:54;-0.50;99.90
18593;DHT22;9426;54.118;17.948;2024-03-08T22:43:26;-0.50;99.90
18593;DHT22;9426;54.118;17.948;2024-03-08T22:48:57;-1.70;99.90
18593;DHT22;9426;54.118;17.948;2024-03-08T22:54:25;-0.70;99.90
18593;DHT22;9426;54.118;17.948;2024-03-08T22:59:54;-0.70;99.90
18593;DHT22;9426;54.118;17.948;2024-03-08T23:05:27;-0.90;99.90
18593;DHT22;9426;54.118;17.948;2024-03-08T23:10:55;-0.60;99.90
18593;DHT22;9426;54.118;17.948;2024-03-08T23:16:26;-0.60;99.90
18593;DHT22;9426;54.118;17.948;2024-03-08T23:21:55;-1.70;99.90
18593;DHT22;9426;54.118;17.948;2024-03-08T23:27:24;-0.70;99.90
18593;DHT22;9426;54.118;17.948;2024-03-08T23:32:53;-0.70;99.90
18593;DHT22;9426;54.118;17.948;2024-03-08T23:38:22;-0.80;99.90
18593;DHT22;9426;54.118;17.948;2024-03-08T23:43:49;-0.50;99.90
18593;DHT22;9426;54.118;17.948;2024-03-08T23:49:20;-0.90;99.90
18593;DHT22;9426;54.118;17.948;2024-03-08T23:54:48;-0.80;99.90
